Time;durP1;ratioP1;P1;durP2;ratioP2;P2;SDS_P1;SDS_P2;PMS_P1;PMS_P2;Temp;Humidity;BMP_temperature;BMP_pressure;BME280_temperature;BME280_humidity;BME280_pressure;Samples;Min_cycle;Max_cycle;Signal;HPM_P1;HPM_P2
2023/12/15 00:04:44;;;;;;;8.03;3.73;;;6.80;99.90;;;5.01;100.00;100303.63;10488597;27;96515;-83
2023/12/15 00:09:47;;;;;;;11.83;5.70;;;6.90;99.90;;;5.09;100.00;100316.97;10488834;27;96598;-83
2023/12/15 00:14:51;;;;;;;12.03;5.50;;;6.90;99.90;;;4.99;100.00;100321.34;10475069;27;96615;-82
2023/12/15 00:19:54;;;;;;;12.37;5.83;;;6.90;99.90;;;4.98;100.00;100330.22;10462917;27;96528;-82
2023/12/15 00:24:58;;;;;;;11.73;6.00;;;6.90;99.90;;;4.89;100.00;100336.25;10437496;27;96520;-83
2023/12/15 00:30:03;;;;;;;15.13;6.87;;;6.80;99.90;;;4.86;100.00;100349.69;10450505;27;97163;-82
2023/12/15 00:35:07;;;;;;;12.97;6.40;;;6.70;99.90;;;4.69;100.00;100353.72;10469464;27;96567;-82
2023/12/15 00:40:11;;;;;;;13.30;6.70;;;6.60;99.90;;;4.66;100.00;100366.28;10458961;27;96551;-82
2023/12/15 00:45:15;;;;;;;13.77;5.57;;;6.50;99.90;;;4.60;100.00;100375.50;10463903;27;96470;-82
2023/12/15 00:50:18;;;;;;;11.40;5.37;;;6.40;99.90;;;4.53;100.00;100383.06;10488403;27;96484;-82
2023/12/15 00:55:22;;;;;;;11.30;5.50;;;6.40;99.90;;;4.54;100.00;100387.38;10437316;27;97842;-82
2023/12/15 01:00:25;;;;;;;11.13;5.93;;;6.40;99.90;;;4.52;100.00;100385.84;10423796;27;96539;-82
2023/12/15 01:05:29;;;;;;;9.33;4.97;;;6.40;99.90;;;4.49;100.00;100375.53;10408878;28;96489;-82
2023/12/15 01:10:32;;;;;;;10.23;5.13;;;6.40;99.90;;;4.45;100.00;100382.88;10455245;27;96860;-82
2023/12/15 01:15:36;;;;;;;10.93;5.40;;;6.40;99.90;;;4.53;100.00;100377.81;10461490;27;96484;-83
2023/12/15 01:20:39;;;;;;;10.30;4.53;;;6.40;99.90;;;4.63;100.00;100393.69;10461589;27;96673;-82
2023/12/15 01:25:43;;;;;;;10.23;5.20;;;6.50;99.90;;;4.60;100.00;100393.94;10483602;27;96604;-82
2023/12/15 01:30:47;;;;;;;10.27;4.37;;;6.50;99.90;;;4.66;100.00;100411.84;10469770;27;96440;-82
2023/12/15 01:35:51;;;;;;;10.47;4.83;;;6.50;99.90;;;4.65;100.00;100415.44;10500546;27;96589;-82
2023/12/15 01:40:54;;;;;;;11.17;5.03;;;6.50;99.90;;;4.70;100.00;100420.34;10461601;27;96441;-83
2023/12/15 01:45:58;;;;;;;11.23;5.23;;;6.50;99.90;;;4.70;100.00;100429.09;10469557;27;96476;-83
2023/12/15 01:51:15;;;;;;;12.33;5.23;;;6.60;99.90;;;4.72;100.00;100434.22;10470213;27;96525;-82
2023/12/15 01:56:19;;;;;;;13.30;6.07;;;6.60;99.90;;;4.70;100.00;100436.97;10492659;27;96390;-83
2023/12/15 02:01:23;;;;;;;9.70;5.37;;;6.50;99.90;;;4.69;100.00;100440.56;10455021;27;96850;-82
2023/12/15 02:06:27;;;;;;;10.33;5.20;;;6.50;99.90;;;4.71;100.00;100451.81;10477142;27;96975;-82
2023/12/15 02:11:30;;;;;;;9.13;4.57;;;6.50;99.90;;;4.64;100.00;100452.44;10457699;27;96756;-82
2023/12/15 02:16:35;;;;;;;11.83;5.83;;;6.50;99.90;;;4.56;100.00;100453.91;10476191;27;96680;-82
2023/12/15 02:21:38;;;;;;;10.27;5.63;;;6.50;99.90;;;4.54;100.00;100463.69;10443824;27;96591;-82
2023/12/15 02:26:42;;;;;;;11.10;5.73;;;6.40;99.90;;;4.55;100.00;100456.63;10461989;27;97212;-83
2023/12/15 02:31:45;;;;;;;12.40;5.80;;;6.40;99.90;;;4.56;100.00;100459.16;10469302;27;96759;-82
2023/12/15 02:36:49;;;;;;;10.10;5.07;;;6.40;99.90;;;4.54;100.00;100470.75;10457668;27;96575;-82
2023/12/15 02:41:53;;;;;;;10.77;5.23;;;6.40;99.90;;;4.56;100.00;100467.06;10454069;27;96550;-82
2023/12/15 02:46:56;;;;;;;8.40;4.53;;;6.50;99.90;;;4.56;100.00;100461.78;10457874;27;96512;-82
2023/12/15 02:52:00;;;;;;;8.17;4.20;;;6.50;99.90;;;4.61;100.00;100476.34;10479747;27;96685;-83
2023/12/15 02:57:03;;;;;;;9.50;4.53;;;6.50;99.90;;;4.66;100.00;100479.47;10451045;27;96558;-82
2023/12/15 03:02:07;;;;;;;7.13;4.07;;;6.50;99.90;;;4.60;100.00;100482.59;10466181;27;97716;-82
2023/12/15 03:07:10;;;;;;;7.93;3.83;;;6.50;99.90;;;4.60;100.00;100490.47;10481987;27;96659;-82
2023/12/15 03:12:14;;;;;;;7.57;3.70;;;6.50;99.90;;;4.64;100.00;100497.19;10483826;27;96785;-82
2023/12/15 03:17:18;;;;;;;6.20;2.90;;;6.50;99.90;;;4.61;100.00;100500.88;10461688;27;96544;-82
2023/12/15 03:22:22;;;;;;;7.20;3.03;;;6.50;99.90;;;4.59;100.00;100496.72;10475632;27;97338;-82
2023/12/15 03:27:25;;;;;;;5.80;3.33;;;6.60;99.90;;;4.65;100.00;100509.38;10445931;27;96610;-82
2023/12/15 03:32:29;;;;;;;6.47;3.00;;;6.50;99.90;;;4.62;100.00;100507.84;10461170;27;96886;-82
2023/12/15 03:37:32;;;;;;;8.97;4.27;;;6.60;99.90;;;4.56;100.00;100508.34;10440872;27;96739;-82
2023/12/15 03:42:36;;;;;;;10.83;5.33;;;6.50;99.90;;;4.50;100.00;100508.81;10469486;27;96520;-82
2023/12/15 03:47:39;;;;;;;8.70;3.50;;;6.40;99.90;;;4.58;100.00;100519.56;10460618;27;96737;-82
2023/12/15 03:52:44;;;;;;;8.60;3.83;;;6.50;99.90;;;4.69;100.00;100521.34;10472785;27;96665;-82
2023/12/15 03:57:48;;;;;;;7.00;3.67;;;6.50;99.90;;;4.83;100.00;100537.72;10395959;27;96608;-83
2023/12/15 04:02:52;;;;;;;7.03;3.87;;;6.60;99.90;;;4.87;100.00;100550.66;10437311;27;97737;-82
2023/12/15 04:07:56;;;;;;;9.63;4.20;;;6.70;99.90;;;4.92;100.00;100564.25;10410170;28;96595;-82
2023/12/15 04:13:00;;;;;;;7.60;4.03;;;6.80;99.90;;;4.90;100.00;100564.38;10472204;27;96472;-83
2023/12/15 04:18:04;;;;;;;9.13;4.13;;;6.70;99.90;;;4.87;100.00;100561.19;10484036;27;96615;-82
2023/12/15 04:23:08;;;;;;;8.30;4.20;;;6.70;99.90;;;4.81;100.00;100578.28;10461133;27;96495;-82
2023/12/15 04:28:12;;;;;;;11.87;4.87;;;6.60;99.90;;;4.76;100.00;100575.19;10463355;27;97456;-82
2023/12/15 04:33:15;;;;;;;8.87;4.43;;;6.60;99.90;;;4.78;100.00;100587.25;10441447;27;96477;-82
2023/12/15 04:38:19;;;;;;;11.97;5.43;;;6.60;99.90;;;4.66;100.00;100590.84;10464286;27;96360;-82
2023/12/15 04:43:22;;;;;;;11.67;5.60;;;6.60;99.90;;;4.52;100.00;100594.56;10481266;27;96658;-82
2023/12/15 04:48:25;;;;;;;10.50;5.37;;;6.50;99.90;;;4.41;100.00;100601.63;10455429;27;96531;-82
2023/12/15 04:53:29;;;;;;;9.53;4.73;;;6.30;99.90;;;4.34;100.00;100598.63;10479229;27;96831;-82
2023/12/15 04:58:32;;;;;;;10.27;4.47;;;6.20;99.90;;;4.35;100.00;100610.00;10460356;27;96637;-82
2023/12/15 05:03:36;;;;;;;9.07;4.50;;;6.30;99.90;;;4.31;100.00;100614.63;10472842;27;97035;-82
2023/12/15 05:08:40;;;;;;;10.10;4.60;;;6.20;99.90;;;4.38;100.00;100626.41;10443278;27;96719;-81
2023/12/15 05:13:43;;;;;;;8.10;4.60;;;6.20;99.90;;;4.33;100.00;100623.28;10486186;27;96557;-83
2023/12/15 05:18:46;;;;;;;9.97;4.93;;;6.20;99.90;;;4.29;100.00;100638.44;10461356;27;96539;-82
2023/12/15 05:23:50;;;;;;;7.10;3.97;;;6.20;99.90;;;4.26;100.00;100645.75;10451561;27;97721;-82
2023/12/15 05:28:54;;;;;;;12.10;5.77;;;6.20;99.90;;;4.24;100.00;100659.00;10419088;28;96620;-82
2023/12/15 05:34:02;;;;;;;10.40;5.03;;;6.20;99.90;;;4.23;100.00;100686.25;10479671;27;97835;-82
2023/12/15 05:39:06;;;;;;;11.80;5.00;;;6.20;99.90;;;4.17;100.00;100693.78;10463928;27;96974;-82
2023/12/15 05:44:09;;;;;;;13.90;7.07;;;6.20;99.90;;;4.12;100.00;100703.78;10448497;27;96579;-82
2023/12/15 05:49:12;;;;;;;13.00;6.07;;;6.10;99.90;;;4.08;100.00;100718.13;10456704;27;97417;-82
2023/12/15 05:54:16;;;;;;;13.47;6.10;;;6.10;99.90;;;4.05;100.00;100727.09;10434485;27;99293;-82
2023/12/15 05:59:19;;;;;;;12.37;5.20;;;6.10;99.90;;;4.01;100.00;100726.47;10456347;27;96713;-83
2023/12/15 06:04:23;;;;;;;12.77;4.70;;;6.00;99.90;;;4.05;100.00;100749.91;10453329;27;96640;-83
2023/12/15 06:09:27;;;;;;;9.27;4.43;;;6.00;99.90;;;4.07;100.00;100751.47;10471171;27;97488;-82
2023/12/15 06:14:30;;;;;;;7.93;4.47;;;6.00;99.90;;;4.15;100.00;100761.44;10460683;27;96425;-81
2023/12/15 06:19:39;;;;;;;8.03;3.93;;;6.00;99.90;;;4.14;100.00;100763.25;10425028;27;96525;-82
2023/12/15 06:24:42;;;;;;;9.87;4.50;;;6.10;99.90;;;4.13;100.00;100772.06;10471122;27;96795;-82
2023/12/15 06:29:46;;;;;;;7.03;4.30;;;6.10;99.90;;;4.14;100.00;100784.28;10485695;27;96944;-82
2023/12/15 06:34:50;;;;;;;9.13;4.23;;;6.10;99.90;;;4.14;100.00;100800.06;10467704;27;96562;-82
2023/12/15 06:39:55;;;;;;;8.57;4.17;;;6.10;99.90;;;4.05;100.00;100798.09;10474549;27;96526;-81
2023/12/15 06:45:05;;;;;;;8.17;5.03;;;6.10;99.90;;;4.07;100.00;100814.59;10451986;27;96638;-82
2023/12/15 06:50:09;;;;;;;6.23;3.97;;;6.00;99.90;;;4.06;100.00;100827.88;10438362;27;96551;-81
2023/12/15 06:55:14;;;;;;;8.50;4.30;;;6.00;99.90;;;4.00;100.00;100845.75;10473290;27;96677;-82
2023/12/15 07:00:17;;;;;;;9.00;3.70;;;6.00;99.90;;;3.99;100.00;100849.34;10457038;27;97203;-82
2023/12/15 07:05:20;;;;;;;7.37;4.37;;;5.90;99.90;;;3.99;100.00;100854.59;10478732;27;96487;-82
2023/12/15 07:10:24;;;;;;;7.47;4.40;;;5.90;99.90;;;4.01;100.00;100865.84;10400979;27;97936;-82
2023/12/15 07:15:28;;;;;;;7.80;4.27;;;5.90;99.90;;;4.03;100.00;100878.91;10477586;27;97564;-82
2023/12/15 07:20:31;;;;;;;7.27;4.10;;;6.00;99.90;;;4.05;100.00;100891.94;10461919;27;96607;-82
2023/12/15 07:25:37;;;;;;;8.53;3.87;;;6.00;99.90;;;4.10;100.00;100900.34;10481016;27;97054;-82
2023/12/15 07:30:40;;;;;;;5.10;2.80;;;6.10;99.90;;;4.13;100.00;100921.16;10477591;27;96709;-82
2023/12/15 07:35:44;;;;;;;5.37;2.80;;;6.10;99.90;;;4.17;100.00;100927.91;10428968;27;97795;-82
2023/12/15 07:40:47;;;;;;;5.23;2.93;;;6.20;99.90;;;4.21;100.00;100943.34;10475496;27;96539;-82
2023/12/15 07:45:51;;;;;;;7.70;3.20;;;6.20;99.90;;;4.24;100.00;100932.59;10446441;27;97243;-82
2023/12/15 07:50:54;;;;;;;6.80;3.07;;;6.20;99.90;;;4.29;100.00;100955.97;10446375;27;96629;-82
2023/12/15 07:55:58;;;;;;;8.57;3.57;;;6.20;99.90;;;4.32;100.00;100975.94;10480482;27;96513;-82
2023/12/15 08:01:01;;;;;;;6.80;3.00;;;6.20;99.90;;;4.35;100.00;100994.16;10462086;27;96639;-82
2023/12/15 08:06:05;;;;;;;5.97;2.80;;;6.20;99.90;;;4.35;100.00;100991.53;10465421;27;96552;-81
2023/12/15 08:11:10;;;;;;;5.47;2.60;;;6.30;99.90;;;4.39;100.00;100999.09;10450982;27;96514;-81
2023/12/15 08:16:14;;;;;;;5.30;2.77;;;6.30;99.90;;;4.39;100.00;101007.00;10479001;27;96598;-81
2023/12/15 08:21:17;;;;;;;10.80;4.83;;;6.30;99.90;;;4.40;100.00;101010.47;10459565;27;98604;-81
2023/12/15 08:26:28;;;;;;;8.87;4.13;;;6.30;99.90;;;4.45;100.00;101027.63;10467517;27;96593;-81
2023/12/15 08:31:32;;;;;;;7.47;3.80;;;6.40;99.90;;;4.51;100.00;101045.59;10460266;27;96626;-81
2023/12/15 08:36:35;;;;;;;7.23;3.80;;;6.50;99.90;;;4.57;100.00;101050.44;10466581;27;97816;-81
2023/12/15 08:41:38;;;;;;;16.73;6.00;;;6.50;99.90;;;4.61;100.00;101056.31;10468114;27;97648;-81
2023/12/15 08:46:42;;;;;;;7.57;3.00;;;6.60;99.90;;;4.65;100.00;101070.09;10475361;27;97439;-81
2023/12/15 08:51:45;;;;;;;6.17;2.80;;;6.60;99.90;;;4.71;100.00;101070.50;10482072;27;96639;-81
2023/12/15 08:56:49;;;;;;;10.80;3.10;;;6.60;99.90;;;4.73;100.00;101086.19;10468575;27;96890;-81
2023/12/15 09:01:52;;;;;;;15.80;3.90;;;6.70;99.90;;;4.80;100.00;101098.84;10463068;27;98423;-81
2023/12/15 09:06:56;;;;;;;14.40;3.87;;;6.70;99.90;;;4.82;100.00;101104.81;10445117;27;96509;-81
2023/12/15 09:12:00;;;;;;;8.30;3.37;;;6.80;99.90;;;4.91;100.00;101108.59;10445544;27;96562;-81
2023/12/15 09:17:05;;;;;;;48.60;6.83;;;6.90;99.90;;;5.02;100.00;101124.47;10468320;27;96579;-81
2023/12/15 09:22:09;;;;;;;34.13;5.80;;;7.00;99.90;;;5.05;100.00;101119.00;10465103;27;96889;-82
2023/12/15 09:27:13;;;;;;;43.87;10.70;;;7.10;99.90;;;5.03;100.00;101126.16;10458238;27;96660;-82
2023/12/15 09:32:16;;;;;;;64.50;11.97;;;7.10;99.90;;;5.07;100.00;101132.91;10455655;27;96652;-81
2023/12/15 09:37:19;;;;;;;29.60;7.93;;;7.10;99.90;;;5.07;100.00;101142.59;10469032;27;96484;-81
2023/12/15 09:42:23;;;;;;;14.23;5.37;;;7.10;99.90;;;5.12;100.00;101158.91;10469768;27;96669;-80
2023/12/15 09:47:29;;;;;;;21.73;6.87;;;7.20;99.90;;;5.12;100.00;101165.97;10458866;27;96533;-81
2023/12/15 09:52:34;;;;;;;36.73;7.83;;;7.20;99.90;;;5.12;100.00;101172.09;10474631;27;97502;-81
2023/12/15 09:57:41;;;;;;;30.87;7.57;;;7.20;99.90;;;5.15;100.00;101185.03;10433000;27;97492;-81
2023/12/15 10:02:44;;;;;;;35.97;10.93;;;7.20;99.90;;;5.19;100.00;101180.41;10462565;27;96607;-80
2023/12/15 10:07:48;;;;;;;16.50;6.47;;;7.30;99.90;;;5.19;100.00;101177.75;10467215;27;96733;-81
2023/12/15 10:12:53;;;;;;;14.57;5.63;;;7.30;99.90;;;5.24;100.00;101187.03;10441658;27;96611;-82
2023/12/15 10:17:58;;;;;;;17.97;7.47;;;7.30;99.90;;;5.25;100.00;101195.78;10461856;27;96631;-81
2023/12/15 10:23:04;;;;;;;17.70;7.00;;;7.30;99.90;;;5.29;100.00;101199.88;10433582;27;96758;-82
2023/12/15 10:28:08;;;;;;;99.33;43.93;;;7.40;99.90;;;5.29;100.00;101208.63;10434104;27;96518;-81
2023/12/15 10:33:17;;;;;;;38.40;10.63;;;7.40;99.90;;;5.35;100.00;101218.72;10461011;27;96664;-82
2023/12/15 10:38:20;;;;;;;47.43;12.93;;;7.40;99.90;;;5.43;100.00;101235.78;10443317;27;96440;-81
2023/12/15 10:43:25;;;;;;;22.07;8.73;;;7.50;99.90;;;5.52;100.00;101232.50;10459172;27;96560;-81
2023/12/15 10:48:30;;;;;;;336.57;59.70;;;7.60;99.90;;;5.54;100.00;101218.25;10432668;27;96501;-81
2023/12/15 10:53:34;;;;;;;54.77;13.67;;;7.60;99.90;;;5.63;100.00;101236.03;10459184;27;96588;-81
2023/12/15 10:58:38;;;;;;;16.13;7.90;;;7.60;99.90;;;5.67;100.00;101234.03;10460805;27;96602;-81
2023/12/15 11:03:41;;;;;;;321.40;71.13;;;7.70;99.90;;;5.74;100.00;101250.25;10482234;27;96453;-81
2023/12/15 11:08:45;;;;;;;41.63;11.43;;;7.70;99.90;;;5.82;100.00;101263.75;10489756;27;96564;-81
2023/12/15 11:13:59;;;;;;;58.03;25.77;;;7.80;99.90;;;5.91;100.00;101249.91;10458724;27;96763;-81
2023/12/15 11:19:03;;;;;;;15.20;7.20;;;7.90;99.90;;;5.94;100.00;101252.31;10457210;27;98035;-81
2023/12/15 11:24:07;;;;;;;11.17;5.67;;;8.00;99.90;;;5.99;100.00;101250.16;10485378;27;97172;-81
2023/12/15 11:29:18;;;;;;;10.07;4.60;;;8.00;99.90;;;6.07;100.00;101262.81;10473183;27;96591;-81
2023/12/15 11:34:42;;;;;;;17.73;5.55;;;8.00;99.90;;;6.04;100.00;101263.03;10473377;27;96585;-81
2023/12/15 11:39:47;;;;;;;12.33;5.10;;;8.00;99.90;;;6.06;100.00;101254.06;10465116;27;96576;-83
2023/12/15 11:44:50;;;;;;;57.67;12.37;;;8.00;99.90;;;6.05;100.00;101265.56;10468264;27;96456;-81
2023/12/15 11:49:54;;;;;;;17.00;6.10;;;8.10;99.90;;;6.09;100.00;101264.38;10458046;27;96698;-81
2023/12/15 11:54:59;;;;;;;93.33;16.03;;;8.10;99.90;;;6.18;100.00;101262.88;10463809;27;96651;-80
2023/12/15 12:00:03;;;;;;;12.00;5.90;;;8.20;99.90;;;6.31;100.00;101268.09;10447757;27;97203;-81
2023/12/15 12:05:08;;;;;;;34.47;7.70;;;8.30;99.90;;;6.44;100.00;101284.69;10447273;27;97594;-80
2023/12/15 12:10:11;;;;;;;22.97;8.10;;;8.40;99.90;;;6.53;100.00;101283.13;10465364;27;96436;-81
2023/12/15 12:15:14;;;;;;;12.10;5.50;;;8.50;99.90;;;6.56;100.00;101273.19;10463527;27;96633;-81
2023/12/15 12:20:19;;;;;;;44.07;9.10;;;8.60;99.90;;;6.65;100.00;101283.06;10461609;27;96475;-81
2023/12/15 12:25:22;;;;;;;5.63;2.90;;;8.60;99.90;;;6.64;100.00;101285.81;10438586;27;97885;-81
2023/12/15 12:30:28;;;;;;;8.10;4.03;;;8.70;99.90;;;6.62;100.00;101295.66;10475744;27;96592;-80
2023/12/15 12:35:31;;;;;;;4.93;2.57;;;8.60;99.90;;;6.46;90.94;101293.31;10462970;27;96513;-82
2023/12/15 12:40:35;;;;;;;5.60;2.80;;;8.50;99.90;;;6.37;93.71;101294.03;10463966;27;96592;-80
2023/12/15 12:45:39;;;;;;;8.10;2.83;;;8.40;99.90;;;6.38;95.33;101300.97;10484921;27;96527;-80
2023/12/15 12:50:43;;;;;;;15.70;5.73;;;8.30;99.90;;;6.34;94.24;101328.56;10455671;27;97671;-81
2023/12/15 12:55:46;;;;;;;12.87;4.83;;;8.30;99.90;;;6.29;93.02;101322.78;10420006;27;96554;-81
2023/12/15 13:00:51;;;;;;;7.60;3.00;;;8.30;99.90;;;6.24;90.68;101331.06;10455819;27;96567;-81
2023/12/15 13:05:55;;;;;;;6.87;3.63;;;8.20;99.90;;;6.11;87.61;101346.91;10443493;27;96614;-81
2023/12/15 13:11:00;;;;;;;6.33;3.57;;;8.10;99.90;;;5.99;84.86;101355.72;10482695;27;96547;-81
2023/12/15 13:16:04;;;;;;;6.00;3.33;;;7.90;99.90;;;5.86;84.82;101368.91;10502372;27;96565;-81
2023/12/15 13:21:08;;;;;;;7.00;3.37;;;7.80;99.90;;;5.79;87.09;101370.28;10444768;27;96979;-81
2023/12/15 13:26:14;;;;;;;6.23;3.03;;;7.70;99.90;;;5.65;85.12;101365.16;10462364;27;97454;-81
2023/12/15 13:31:18;;;;;;;7.07;3.17;;;7.60;99.90;;;5.59;85.16;101390.16;10461245;27;96533;-81
2023/12/15 13:36:22;;;;;;;10.27;4.07;;;7.50;99.90;;;5.47;87.98;101393.66;10490164;27;96401;-80
2023/12/15 13:41:25;;;;;;;8.00;2.67;;;7.40;99.90;;;5.32;83.52;101400.81;10501484;27;96851;-81
2023/12/15 13:46:30;;;;;;;8.33;3.17;;;7.30;99.90;;;5.26;83.70;101418.81;10455517;27;96585;-82
2023/12/15 13:51:33;;;;;;;6.80;2.97;;;7.20;99.90;;;5.17;83.76;101422.09;10442441;27;96558;-80
2023/12/15 13:56:38;;;;;;;8.83;4.00;;;7.10;99.90;;;5.04;85.61;101440.53;10486686;27;98180;-80
2023/12/15 14:01:41;;;;;;;10.60;5.30;;;7.00;99.90;;;4.91;85.90;101443.09;10470491;27;96634;-79
2023/12/15 14:06:48;;;;;;;11.67;4.93;;;6.90;99.90;;;4.79;83.51;101450.00;10482467;27;97225;-80
2023/12/15 14:11:52;;;;;;;11.03;5.17;;;6.80;99.90;;;4.64;86.34;101450.19;10487324;27;97023;-80
2023/12/15 14:16:56;;;;;;;8.70;4.37;;;6.60;99.90;;;4.53;86.03;101467.50;10435720;27;96862;-81
2023/12/15 14:22:00;;;;;;;5.80;2.80;;;6.50;99.90;;;4.35;86.81;101459.94;10434394;27;96480;-80
2023/12/15 14:27:04;;;;;;;11.63;3.00;;;6.40;99.90;;;4.20;85.18;101483.66;10460364;27;96573;-81
2023/12/15 14:32:07;;;;;;;6.50;3.03;;;6.20;99.90;;;4.01;90.11;101490.97;10461558;27;97791;-80
2023/12/15 14:37:11;;;;;;;7.00;2.57;;;6.00;99.90;;;3.83;87.00;101485.03;10442597;27;96595;-80
2023/12/15 14:42:15;;;;;;;5.80;2.67;;;5.90;99.90;;;3.61;83.71;101488.13;10460943;27;96435;-80
2023/12/15 14:47:18;;;;;;;5.73;2.47;;;5.70;99.90;;;3.53;78.13;101508.75;10458670;27;96578;-80
2023/12/15 14:52:22;;;;;;;4.50;2.23;;;5.50;99.90;;;3.43;75.14;101521.59;10459023;27;96665;-80
2023/12/15 14:57:28;;;;;;;10.43;2.93;;;5.40;99.90;;;3.37;73.62;101544.78;10458228;27;96429;-80
2023/12/15 15:02:33;;;;;;;7.23;2.80;;;5.30;99.90;;;3.29;72.79;101557.47;10458538;27;96550;-80
2023/12/15 15:07:37;;;;;;;6.87;3.03;;;5.20;99.90;;;3.16;72.68;101571.31;10453668;27;96621;-80
2023/12/15 15:12:40;;;;;;;10.53;3.30;;;5.10;99.90;;;3.02;71.42;101581.75;10456573;27;96626;-80
2023/12/15 15:17:43;;;;;;;10.47;4.53;;;5.00;99.90;;;2.87;71.19;101600.97;10449723;27;96456;-80
2023/12/15 15:22:47;;;;;;;8.03;3.70;;;4.90;99.90;;;2.69;73.15;101602.81;10458638;27;97494;-80
2023/12/15 15:27:50;;;;;;;31.90;12.17;;;4.70;99.90;;;2.49;73.36;101605.69;10458843;27;96576;-80
2023/12/15 15:32:55;;;;;;;47.67;18.10;;;4.50;99.90;;;2.32;74.94;101614.44;10465749;27;96532;-80
2023/12/15 15:37:58;;;;;;;13.30;7.03;;;4.30;99.90;;;2.13;76.25;101614.56;10457518;27;96460;-79
2023/12/15 15:43:02;;;;;;;5.57;2.87;;;4.20;99.90;;;2.00;75.97;101621.34;10466659;27;97020;-80
2023/12/15 15:48:06;;;;;;;7.77;3.70;;;4.00;99.90;;;1.78;79.48;101632.06;10463709;27;96756;-82
2023/12/15 15:53:11;;;;;;;10.50;3.40;;;3.90;99.90;;;1.57;79.95;101636.59;10443859;27;96474;-82
2023/12/15 15:58:14;;;;;;;15.37;4.77;;;3.70;99.90;;;1.41;82.35;101641.72;10500481;27;96404;-80
2023/12/15 16:03:18;;;;;;;12.23;4.47;;;3.50;99.90;;;1.29;82.05;101648.41;10426225;27;96532;-80
2023/12/15 16:08:21;;;;;;;11.97;5.23;;;3.40;99.90;;;1.21;83.59;101647.09;10461161;27;96345;-82
2023/12/15 16:13:25;;;;;;;5.83;3.10;;;3.30;99.90;;;1.16;82.92;101670.00;10475743;27;96561;-80
2023/12/15 16:18:28;;;;;;;6.40;3.23;;;3.20;99.90;;;1.06;83.51;101677.44;10462140;27;96543;-82
2023/12/15 16:23:33;;;;;;;4.17;2.13;;;3.20;99.90;;;1.03;83.12;101701.16;10454083;27;96583;-81
2023/12/15 16:28:37;;;;;;;8.53;3.60;;;3.10;99.90;;;0.91;83.52;101696.47;10464683;27;96720;-82
2023/12/15 16:33:40;;;;;;;9.00;3.93;;;3.00;99.90;;;0.89;81.91;101712.22;10468733;27;96654;-82
2023/12/15 16:38:44;;;;;;;11.93;5.27;;;2.90;99.90;;;0.86;79.79;101715.00;10491301;27;96518;-81
2023/12/15 16:43:48;;;;;;;7.27;3.70;;;2.90;99.90;;;0.88;77.69;101718.38;10488095;27;96489;-81
2023/12/15 16:48:55;;;;;;;9.50;4.00;;;2.90;99.90;;;0.88;76.20;101734.09;10462969;27;96437;-81
2023/12/15 16:53:59;;;;;;;8.17;3.00;;;2.90;99.90;;;0.91;76.38;101749.66;10438373;27;96612;-81
2023/12/15 16:59:02;;;;;;;5.07;2.30;;;2.90;99.90;;;0.95;74.94;101750.38;10466148;27;97967;-81
2023/12/15 17:04:07;;;;;;;11.03;4.30;;;2.90;99.90;;;0.85;75.96;101738.63;10430913;27;96662;-81
2023/12/15 17:09:10;;;;;;;3.67;2.00;;;2.90;99.90;;;0.86;76.58;101766.50;10432842;27;96582;-81
2023/12/15 17:14:14;;;;;;;12.90;4.90;;;2.90;99.90;;;0.65;78.08;101753.41;10484128;27;96600;-81
2023/12/15 17:19:17;;;;;;;17.80;5.33;;;2.90;99.90;;;0.64;79.96;101793.56;10461351;27;97333;-81
2023/12/15 17:24:21;;;;;;;12.13;5.03;;;2.80;99.90;;;0.47;83.49;101796.03;10460297;27;97022;-80
2023/12/15 17:29:24;;;;;;;14.70;5.30;;;2.60;99.90;;;0.34;86.78;101818.41;10440756;27;97788;-80
2023/12/15 17:34:42;;;;;;;14.43;4.93;;;2.50;99.90;;;0.24;88.03;101817.91;10458472;27;96817;-81
2023/12/15 17:39:45;;;;;;;31.60;9.80;;;2.40;99.90;;;0.20;89.48;101829.44;10461989;27;96594;-81
2023/12/15 17:44:49;;;;;;;54.63;13.73;;;2.40;99.90;;;0.16;89.85;101820.00;10458397;27;98003;-81
2023/12/15 17:49:53;;;;;;;123.50;24.37;;;2.30;99.90;;;0.15;90.54;101832.22;10465076;27;98013;-81
2023/12/15 17:54:56;;;;;;;27.10;10.53;;;2.30;99.90;;;0.17;89.74;101851.28;10476680;27;96567;-80
2023/12/15 18:00:00;;;;;;;9.90;4.20;;;2.30;99.90;;;0.20;87.15;101858.19;10478150;27;96597;-80
2023/12/15 18:05:05;;;;;;;11.27;3.80;;;2.30;99.90;;;0.18;87.74;101855.63;10460887;27;98262;-81
2023/12/15 18:10:09;;;;;;;5.63;2.73;;;2.30;99.90;;;0.15;89.25;101860.97;10447975;27;96651;-81
2023/12/15 18:15:13;;;;;;;3.67;2.10;;;2.30;99.90;;;0.05;89.64;101864.84;10457740;27;97532;-81
2023/12/15 18:20:18;;;;;;;5.27;2.03;;;2.20;99.90;;;0.00;90.33;101858.97;10430654;27;97362;-81
2023/12/15 18:25:22;;;;;;;3.10;1.80;;;2.10;99.90;;;-0.12;91.95;101857.69;10477440;27;97908;-80
2023/12/15 18:30:25;;;;;;;3.73;1.93;;;2.00;99.90;;;-0.18;91.09;101865.75;10466287;27;96711;-79
2023/12/15 18:35:29;;;;;;;4.03;1.87;;;2.00;99.90;;;-0.21;90.95;101876.31;10469298;27;96739;-81
2023/12/15 18:40:33;;;;;;;3.60;1.60;;;1.90;99.90;;;-0.27;93.05;101887.84;10455982;27;97743;-81
2023/12/15 18:45:36;;;;;;;9.97;4.50;;;1.80;99.90;;;-0.39;94.84;101903.13;10449320;27;97772;-81
2023/12/15 18:50:40;;;;;;;7.93;3.33;;;1.80;99.90;;;-0.49;98.52;101907.81;10441901;27;97316;-81
2023/12/15 18:55:43;;;;;;;14.23;5.67;;;1.60;99.90;;;-0.56;98.16;101916.78;10442866;27;96571;-81
2023/12/15 19:00:48;;;;;;;10.70;4.53;;;1.60;99.90;;;-0.66;99.56;101920.63;10435415;27;96623;-81
2023/12/15 19:05:52;;;;;;;12.07;4.60;;;1.50;99.90;;;-0.85;100.00;101933.47;10436851;27;98229;-81
2023/12/15 19:10:55;;;;;;;15.63;5.13;;;1.40;99.90;;;-1.00;100.00;101936.59;10445435;27;96932;-81
2023/12/15 19:15:59;;;;;;;22.00;7.83;;;1.30;99.90;;;-1.16;100.00;101936.25;10436120;27;96612;-81
2023/12/15 19:21:03;;;;;;;18.97;7.27;;;1.10;99.90;;;-1.31;100.00;101934.16;10454791;27;96773;-81
2023/12/15 19:26:07;;;;;;;16.43;6.33;;;0.90;99.90;;;-1.44;100.00;101938.88;10469360;27;96610;-81
2023/12/15 19:31:11;;;;;;;13.27;5.43;;;0.80;99.90;;;-1.59;100.00;101932.41;10455534;27;96602;-81
2023/12/15 19:36:15;;;;;;;15.50;5.83;;;0.70;99.90;;;-1.68;100.00;101927.47;10448720;27;96597;-81
2023/12/15 19:41:19;;;;;;;13.00;5.07;;;0.60;99.90;;;-1.70;100.00;101944.91;10480085;27;96643;-81
2023/12/15 19:46:27;;;;;;;19.17;6.43;;;0.50;99.90;;;-1.74;100.00;101951.13;10444275;27;96994;-81
2023/12/15 19:51:31;;;;;;;19.87;8.77;;;0.50;99.90;;;-1.85;100.00;101945.41;10465037;27;96645;-81
2023/12/15 19:56:38;;;;;;;22.80;8.70;;;0.40;99.90;;;-1.89;100.00;101961.09;10478857;27;97996;-81
2023/12/15 20:01:41;;;;;;;11.50;5.80;;;0.40;99.90;;;-2.02;100.00;101962.38;10496362;27;96476;-81
2023/12/15 20:06:46;;;;;;;8.57;3.70;;;0.30;99.90;;;-2.12;100.00;101954.84;10446473;27;98116;-80
2023/12/15 20:11:50;;;;;;;9.47;3.10;;;0.20;99.90;;;-1.93;100.00;101967.28;10471633;27;96415;-81
2023/12/15 20:16:54;;;;;;;6.00;2.47;;;0.20;99.90;;;-1.74;100.00;101966.75;10471471;27;96712;-80
2023/12/15 20:21:58;;;;;;;7.87;2.67;;;0.30;99.90;;;-1.63;100.00;101967.28;10439842;27;98099;-80
2023/12/15 20:27:08;;;;;;;7.30;2.70;;;0.40;99.90;;;-1.54;100.00;101961.81;10452728;27;96494;-81
2023/12/15 20:32:11;;;;;;;5.47;2.60;;;0.50;99.90;;;-1.41;100.00;101970.09;10447542;27;98092;-80
2023/12/15 20:37:15;;;;;;;6.10;2.90;;;0.60;99.90;;;-1.34;100.00;101966.38;10464803;27;96660;-81
2023/12/15 20:42:18;;;;;;;6.77;2.87;;;0.80;99.90;;;-1.34;100.00;101963.78;10470879;27;96460;-80
2023/12/15 20:47:22;;;;;;;8.20;2.77;;;0.80;99.90;;;-1.27;100.00;101969.66;10479497;27;96475;-81
2023/12/15 20:52:27;;;;;;;8.50;4.00;;;0.80;99.90;;;-1.24;100.00;101969.56;10456472;27;96599;-81
2023/12/15 20:57:30;;;;;;;8.60;3.90;;;0.90;99.90;;;-1.21;100.00;101969.44;10482120;27;98502;-81
2023/12/15 21:02:37;;;;;;;10.87;3.87;;;0.90;99.90;;;-1.17;100.00;101979.75;10466831;27;96678;-81